Pagrindinis puslapis
METAR-TAF:

METAR-TAF

Oro uostai :

Sankt Peterburgas, Rusija

platuma: 59-58N, ilguma: 030-18E, Aukštis: 4 m

Dabartinis oras

Ataskaita buvo paskelbta 16 minutes, ne 06:00 UTC
Vėjas 2 kt nuo kintamojo kryptimis
Temperatūra 15°C
Drėgmė 39%
Slėgis 1027 hPa
Matomumas 10 km arba daugiau
nėra debesų žemiau 1500 m ir nėra kamuolinių lietaus debesų

METAR: ULLI 220600Z VRB01MPS CAVOK 15/01 Q1027 R10L/090060 NOSIG

Laikas: 09:16 (06:16 UTC)

Prognozė

Ataskaita buvo paskelbta 1 valandą ir 22 minutes, ne 04:54 UTC
Prognozė galioja nuo 22 metu 06 UTC su 23 metu 06 UTC
Vėjas 6 kt iš Rytų/Šiaurės Rytų
Matomumas 10 km arba daugiau
Išsisklaidę debesys ne aukštis 2500 ft
Laikinai
nuo 22 metu 10 UTC su 22 metu 18 UTC
Vėjas 10 kt iš Šiaurės/Šiaurės Rytų

TAF: ULLI 220454Z 2206/2306 07003MPS 9999 SCT025 TEMPO 2210/2218 02005MPS

Orai ataskaitas ir orų prognozės (METAR, TAF).

turimą stotys yra geltonos ir raudonos taškus žemėlapyje.

Perkelti pele per norėdami pamatyti stoties vardą.

Tada spustelėkite, norėdami matyti oro stebėjimo ir prognozės.

Norėdami pakeisti žemėlapį: spustelėkite ant žalios mygtukų su juodo kryžiaus žemyn,; žalią mygtuką su brūkšneliu, jei norite nutolinti; arba žalių rodyklių gretimoms žemėlapius.


METAR-TAF: